createdAt,value
2019-04-29T00:00:00.906Z,1014.24
2019-04-29T00:01:10.859Z,1014.23
2019-04-29T00:02:20.548Z,1014.22
2019-04-29T00:03:30.504Z,1014.25
2019-04-29T00:04:40.194Z,1014.2
2019-04-29T00:05:49.645Z,1014.23
2019-04-29T00:06:59.595Z,1014.21
2019-04-29T00:08:09.561Z,1014.18
2019-04-29T00:09:19.315Z,1014.23
2019-04-29T00:10:31.546Z,1014.19
2019-04-29T00:11:41.282Z,1014.2
2019-04-29T00:12:51.245Z,1014.23
2019-04-29T00:14:01.275Z,1014.25
2019-04-29T00:15:10.970Z,1014.23
2019-04-29T00:16:20.664Z,1014.2
2019-04-29T00:17:30.133Z,1014.22
2019-04-29T00:18:40.101Z,1014.19
2019-04-29T00:19:50.055Z,1014.18
2019-04-29T00:21:00.061Z,1014.17
2019-04-29T00:22:09.751Z,1014.12
2019-04-29T00:23:19.439Z,1014.16
2019-04-29T00:24:29.149Z,1014.19
2019-04-29T00:25:38.833Z,1014.17
2019-04-29T00:26:48.527Z,1014.16
2019-04-29T00:27:58.473Z,1014.16
2019-04-29T00:29:07.673Z,1014.12
2019-04-29T00:30:17.380Z,1014.16
2019-04-29T00:31:27.351Z,1014.16
2019-04-29T00:32:37.389Z,1014.16
2019-04-29T00:33:47.347Z,1014.12
2019-04-29T00:34:57.299Z,1014.13
2019-04-29T00:36:06.997Z,1014.1
2019-04-29T00:37:16.708Z,1014.09
2019-04-29T00:38:26.413Z,1014.12
2019-04-29T00:39:36.373Z,1014.16
2019-04-29T00:40:46.327Z,1014.11
2019-04-29T00:41:56.275Z,1014.08
2019-04-29T00:43:06.221Z,1014.02
2019-04-29T00:44:15.940Z,1014.08
2019-04-29T00:45:25.939Z,1014.05
2019-04-29T00:46:35.633Z,1014.11
2019-04-29T00:47:45.329Z,1014.08
2019-04-29T00:48:55.025Z,1014.08
2019-04-29T00:50:04.996Z,1014.12
2019-04-29T00:51:14.945Z,1014.04
2019-04-29T00:52:24.409Z,1014.05
2019-04-29T00:53:34.349Z,1014.08
2019-04-29T00:54:43.800Z,1014.08
2019-04-29T00:55:53.501Z,1014.05
2019-04-29T00:57:03.239Z,1014.1
2019-04-29T00:58:13.209Z,1014.04
2019-04-29T00:59:23.163Z,1014.03
2019-04-29T01:00:33.117Z,1014.05
2019-04-29T01:01:42.816Z,1014.07
2019-04-29T01:02:52.498Z,1014.07
2019-04-29T01:04:02.196Z,1014.08
2019-04-29T01:05:12.140Z,1014.12
2019-04-29T01:06:21.592Z,1014.11
2019-04-29T01:07:31.307Z,1014.08
2019-04-29T01:08:40.763Z,1014.08
2019-04-29T01:09:50.734Z,1014.06
2019-04-29T01:11:00.738Z,1014.09
2019-04-29T01:12:10.449Z,1014.1
2019-04-29T01:13:20.142Z,1014.13
2019-04-29T01:14:29.595Z,1014.1
2019-04-29T01:15:39.557Z,1014.09
2019-04-29T01:16:49.517Z,1014.12
2019-04-29T01:17:58.972Z,1014.1
2019-04-29T01:19:08.689Z,1014.11
2019-04-29T01:20:18.841Z,1014.08
2019-04-29T01:21:28.283Z,1014.11
2019-04-29T01:22:38.455Z,1014.06
2019-04-29T01:23:48.385Z,1014.08
2019-04-29T01:24:58.335Z,1014.1
2019-04-29T01:26:08.297Z,1014.08
2019-04-29T01:27:18.249Z,1014.02
2019-04-29T01:28:28.203Z,1014.08
2019-04-29T01:29:38.151Z,1014.06
2019-04-29T01:30:47.347Z,1014.03
2019-04-29T01:31:57.059Z,1014.01
2019-04-29T01:33:06.747Z,1014
2019-04-29T01:34:16.700Z,1014.02
2019-04-29T01:35:26.409Z,1014.01
2019-04-29T01:36:36.384Z,1014
2019-04-29T01:37:46.083Z,1013.95
2019-04-29T01:38:56.028Z,1013.99
2019-04-29T01:40:05.971Z,1013.97
2019-04-29T01:41:15.925Z,1013.89
2019-04-29T01:42:25.868Z,1013.91
2019-04-29T01:43:35.817Z,1013.9
2019-04-29T01:44:45.756Z,1013.92
2019-04-29T01:45:55.715Z,1013.9
2019-04-29T01:47:05.411Z,1013.93
2019-04-29T01:48:15.133Z,1013.88
2019-04-29T01:49:25.081Z,1013.89
2019-04-29T01:50:35.026Z,1013.87
2019-04-29T01:51:44.467Z,1013.87
2019-04-29T01:52:54.390Z,1013.83
2019-04-29T01:54:04.073Z,1013.9
2019-04-29T01:55:13.774Z,1013.86
2019-04-29T01:56:23.730Z,1013.85
2019-04-29T01:57:33.688Z,1013.84
2019-04-29T01:58:43.634Z,1013.86
2019-04-29T01:59:53.083Z,1013.85
2019-04-29T02:01:03.031Z,1013.86
2019-04-29T02:02:12.998Z,1013.83
2019-04-29T02:03:22.937Z,1013.78
2019-04-29T02:04:32.889Z,1013.79
2019-04-29T02:05:42.581Z,1013.78
2019-04-29T02:06:52.280Z,1013.78
2019-04-29T02:08:02.226Z,1013.83
2019-04-29T02:09:12.170Z,1013.79
2019-04-29T02:10:22.118Z,1013.83
2019-04-29T02:11:32.069Z,1013.76
2019-04-29T02:12:41.771Z,1013.74
2019-04-29T02:13:51.222Z,1013.73
2019-04-29T02:15:01.225Z,1013.74
2019-04-29T02:16:10.927Z,1013.67
2019-04-29T02:17:20.606Z,1013.71
2019-04-29T02:18:30.302Z,1013.69
2019-04-29T02:19:39.998Z,1013.68
2019-04-29T02:20:49.942Z,1013.67
2019-04-29T02:21:59.655Z,1013.65
2019-04-29T02:23:09.593Z,1013.68
2019-04-29T02:24:19.538Z,1013.64
2019-04-29T02:25:29.225Z,1013.64
2019-04-29T02:26:38.982Z,1013.63
2019-04-29T02:27:48.926Z,1013.64
2019-04-29T02:28:58.939Z,1013.65
2019-04-29T02:30:08.389Z,1013.63
2019-04-29T02:31:18.371Z,1013.61
2019-04-29T02:32:28.233Z,1013.6
2019-04-29T02:33:38.198Z,1013.48
2019-04-29T02:34:48.175Z,1013.53
2019-04-29T02:35:58.213Z,1013.47
2019-04-29T02:37:08.179Z,1013.51
2019-04-29T02:38:17.881Z,1013.49
2019-04-29T02:39:27.625Z,1013.49
2019-04-29T02:40:37.596Z,1013.51
2019-04-29T02:41:47.306Z,1013.53
2019-04-29T02:42:57.013Z,1013.5
2019-04-29T02:44:07.008Z,1013.49
2019-04-29T02:45:16.970Z,1013.42
2019-04-29T02:46:27.018Z,1013.47
2019-04-29T02:47:36.974Z,1013.44
2019-04-29T02:48:46.703Z,1013.43
2019-04-29T02:49:56.398Z,1013.39
2019-04-29T02:51:06.119Z,1013.35
2019-04-29T02:52:15.851Z,1013.38
2019-04-29T02:53:25.929Z,1013.31
2019-04-29T02:54:35.939Z,1013.34
2019-04-29T02:55:45.906Z,1013.35
2019-04-29T02:56:55.857Z,1013.3
2019-04-29T02:58:05.842Z,1013.31
2019-04-29T02:59:19.823Z,1013.32
2019-04-29T03:00:29.291Z,1013.25
2019-04-29T03:01:39.003Z,1013.27
2019-04-29T03:02:49.039Z,1013.22
2019-04-29T03:03:58.748Z,1013.29
2019-04-29T03:05:08.474Z,1013.17
2019-04-29T03:06:18.486Z,1013.24
2019-04-29T03:07:28.467Z,1013.19
2019-04-29T03:08:38.300Z,1013.22
2019-04-29T03:09:48.284Z,1013.16
2019-04-29T03:10:58.216Z,1013.18
2019-04-29T03:12:08.183Z,1013.15
2019-04-29T03:13:18.157Z,1013.09
2019-04-29T03:14:28.105Z,1013.12
2019-04-29T03:15:38.083Z,1013.11
2019-04-29T03:16:48.206Z,1013.12
2019-04-29T03:17:58.164Z,1013.13
2019-04-29T03:19:07.642Z,1013.11
2019-04-29T03:20:17.129Z,1013.13
2019-04-29T03:21:27.091Z,1013.09
2019-04-29T03:22:37.071Z,1013.05
2019-04-29T03:23:47.030Z,1013.04
2019-04-29T03:24:56.984Z,1013.05
2019-04-29T03:26:06.504Z,1013.05
2019-04-29T03:27:16.226Z,1013.04
2019-04-29T03:28:25.958Z,1013
2019-04-29T03:29:35.908Z,1012.99
2019-04-29T03:30:45.889Z,1012.97
2019-04-29T03:31:55.937Z,1012.94
2019-04-29T03:33:05.987Z,1013.03
2019-04-29T03:34:15.724Z,1012.95
2019-04-29T03:35:25.689Z,1012.93
2019-04-29T03:36:35.446Z,1012.95
2019-04-29T03:37:45.152Z,1012.95
2019-04-29T03:38:54.854Z,1012.92
2019-04-29T03:40:04.826Z,1012.88
2019-04-29T03:41:14.807Z,1012.85
2019-04-29T03:42:24.266Z,1012.88
2019-04-29T03:43:33.974Z,1012.84
2019-04-29T03:44:43.701Z,1012.85
2019-04-29T03:45:53.179Z,1012.81
2019-04-29T03:47:03.144Z,1012.77
2019-04-29T03:48:12.870Z,1012.73
2019-04-29T03:49:22.097Z,1012.82
2019-04-29T03:50:32.129Z,1012.83
2019-04-29T03:51:42.153Z,1012.81
2019-04-29T03:52:51.887Z,1012.79
2019-04-29T03:54:01.932Z,1012.78
2019-04-29T03:55:11.936Z,1012.8
2019-04-29T03:56:41.346Z,1012.82
2019-04-29T03:57:51.073Z,1012.78
2019-04-29T03:59:01.027Z,1012.8
2019-04-29T04:00:10.982Z,1012.82
2019-04-29T04:01:20.711Z,1012.71
2019-04-29T04:02:30.726Z,1012.75
2019-04-29T04:03:40.688Z,1012.74
2019-04-29T04:04:50.673Z,1012.7
2019-04-29T04:06:00.441Z,1012.69
2019-04-29T04:07:10.153Z,1012.69
2019-04-29T04:08:19.854Z,1012.66
2019-04-29T04:09:29.815Z,1012.62
2019-04-29T04:10:39.534Z,1012.69
2019-04-29T04:11:49.506Z,1012.66
2019-04-29T04:12:59.325Z,1012.69
2019-04-29T04:14:09.046Z,1012.67
2019-04-29T04:15:18.509Z,1012.66
2019-04-29T04:16:28.501Z,1012.66
2019-04-29T04:17:37.971Z,1012.62
2019-04-29T04:18:47.971Z,1012.67
2019-04-29T04:19:57.928Z,1012.67
2019-04-29T04:21:07.887Z,1012.69
2019-04-29T04:22:17.878Z,1012.65
2019-04-29T04:23:27.850Z,1012.7
2019-04-29T04:24:37.564Z,1012.69
2019-04-29T04:25:47.538Z,1012.65
2019-04-29T04:26:57.532Z,1012.69
2019-04-29T04:28:07.498Z,1012.74
2019-04-29T04:29:17.488Z,1012.68
2019-04-29T04:30:27.462Z,1012.65
2019-04-29T04:31:37.423Z,1012.69
2019-04-29T04:32:47.146Z,1012.66
2019-04-29T04:33:56.865Z,1012.68
2019-04-29T04:35:06.884Z,1012.67
2019-04-29T04:36:16.892Z,1012.69
2019-04-29T04:37:26.700Z,1012.65
2019-04-29T04:38:36.412Z,1012.64
2019-04-29T04:39:45.866Z,1012.63
2019-04-29T04:40:55.586Z,1012.65
2019-04-29T04:42:05.555Z,1012.64
2019-04-29T04:43:15.278Z,1012.63
2019-04-29T04:44:25.254Z,1012.57
2019-04-29T04:45:34.706Z,1012.55
2019-04-29T04:46:44.511Z,1012.6
2019-04-29T04:47:54.242Z,1012.59
2019-04-29T04:49:04.249Z,1012.6
2019-04-29T04:50:16.391Z,1012.58
2019-04-29T04:51:26.360Z,1012.53
2019-04-29T04:52:35.838Z,1012.62
2019-04-29T04:53:45.078Z,1012.58
2019-04-29T04:54:55.129Z,1012.63
2019-04-29T04:56:04.862Z,1012.6
2019-04-29T04:57:14.822Z,1012.6
2019-04-29T04:58:24.536Z,1012.62
2019-04-29T04:59:34.536Z,1012.55
2019-04-29T05:00:44.531Z,1012.54
2019-04-29T05:01:54.501Z,1012.58
2019-04-29T05:03:04.463Z,1012.55
2019-04-29T05:04:14.421Z,1012.59
2019-04-29T05:05:24.368Z,1012.62
2019-04-29T05:06:34.328Z,1012.55
2019-04-29T05:07:44.341Z,1012.52
2019-04-29T05:08:54.057Z,1012.5
2019-04-29T05:10:04.013Z,1012.56
2019-04-29T05:11:13.712Z,1012.53
2019-04-29T05:12:23.667Z,1012.49
2019-04-29T05:13:33.645Z,1012.5
2019-04-29T05:14:43.642Z,1012.55
2019-04-29T05:15:53.593Z,1012.47
2019-04-29T05:17:03.546Z,1012.53
2019-04-29T05:18:13.271Z,1012.48
2019-04-29T05:19:23.234Z,1012.46
2019-04-29T05:20:32.933Z,1012.43
2019-04-29T05:21:42.885Z,1012.41
2019-04-29T05:22:52.851Z,1012.37
2019-04-29T05:24:02.803Z,1012.42
2019-04-29T05:25:12.751Z,1012.36
2019-04-29T05:26:22.692Z,1012.44
2019-04-29T05:27:32.657Z,1012.45
2019-04-29T05:28:42.589Z,1012.47
2019-04-29T05:29:52.041Z,1012.49
2019-04-29T05:31:02.005Z,1012.46
2019-04-29T05:32:11.707Z,1012.48
2019-04-29T05:33:21.416Z,1012.43
2019-04-29T05:34:31.139Z,1012.45
2019-04-29T05:35:48.423Z,1012.46
2019-04-29T05:37:06.805Z,1012.48
2019-04-29T05:38:16.535Z,1012.5
2019-04-29T05:39:26.233Z,1012.48
2019-04-29T05:40:35.933Z,1012.48
2019-04-29T05:41:45.660Z,1012.49
2019-04-29T05:42:55.611Z,1012.48
2019-04-29T05:44:08.058Z,1012.47
2019-04-29T05:45:19.626Z,1012.41
2019-04-29T05:46:29.329Z,1012.48
2019-04-29T05:47:39.040Z,1012.47
2019-04-29T05:48:53.026Z,1012.43
2019-04-29T05:50:11.734Z,1012.45
2019-04-29T05:51:27.163Z,1012.46
2019-04-29T05:52:39.350Z,1012.49
2019-04-29T05:53:54.792Z,1012.49
2019-04-29T05:55:05.109Z,1012.45
2019-04-29T05:56:18.783Z,1012.48
2019-04-29T05:57:28.747Z,1012.49
2019-04-29T05:58:39.564Z,1012.48
2019-04-29T05:59:49.636Z,1012.49
2019-04-29T06:00:59.587Z,1012.5
2019-04-29T06:02:09.309Z,1012.53
2019-04-29T06:03:19.273Z,1012.52
2019-04-29T06:04:28.985Z,1012.54
2019-04-29T06:05:38.711Z,1012.52
2019-04-29T06:06:48.418Z,1012.5
2019-04-29T06:08:00.896Z,1012.5
2019-04-29T06:09:16.203Z,1012.5
2019-04-29T06:10:26.442Z,1012.43
2019-04-29T06:11:36.385Z,1012.5
2019-04-29T06:12:46.142Z,1012.5
2019-04-29T06:13:56.106Z,1012.48
2019-04-29T06:15:06.075Z,1012.52
2019-04-29T06:16:20.754Z,1012.53
2019-04-29T06:17:30.695Z,1012.53
2019-04-29T06:18:45.621Z,1012.51
2019-04-29T06:20:06.463Z,1012.55
2019-04-29T06:21:23.323Z,1012.51
2019-04-29T06:22:33.029Z,1012.46
2019-04-29T06:23:48.484Z,1012.52
2019-04-29T06:25:06.385Z,1012.52
2019-04-29T06:26:15.985Z,1012.43
2019-04-29T06:27:25.694Z,1012.46
2019-04-29T06:28:38.585Z,1012.46
2019-04-29T06:29:48.547Z,1012.44
2019-04-29T06:31:03.903Z,1012.42
2019-04-29T06:32:13.376Z,1012.28
2019-04-29T06:33:28.962Z,1012.25
2019-04-29T06:34:40.001Z,1012.14
2019-04-29T06:35:50.127Z,1012.2
2019-04-29T06:37:02.353Z,1012.28
2019-04-29T06:38:12.080Z,1012.22
2019-04-29T06:39:22.035Z,1012.23
2019-04-29T06:40:35.282Z,1012.22
2019-04-29T06:41:46.917Z,1012.22
2019-04-29T06:42:56.995Z,1012.27
2019-04-29T06:44:15.728Z,1012.21
2019-04-29T06:45:25.896Z,1012.22
2019-04-29T06:46:35.885Z,1012.23
2019-04-29T06:47:45.592Z,1012.28
2019-04-29T06:49:08.978Z,1012.15
2019-04-29T06:50:19.302Z,1012.19
2019-04-29T06:51:28.757Z,1012.21
2019-04-29T06:52:38.518Z,1012.23
2019-04-29T06:53:48.486Z,1012.22
2019-04-29T06:54:58.194Z,1012.21
2019-04-29T06:56:09.197Z,1012.2
2019-04-29T06:57:19.073Z,1012.27
2019-04-29T06:58:32.389Z,1012.24
2019-04-29T06:59:47.440Z,1012.25
2019-04-29T07:01:00.899Z,1012.23
2019-04-29T07:02:14.244Z,1012.16
2019-04-29T07:03:25.402Z,1012.28
2019-04-29T07:04:38.696Z,1012.19
2019-04-29T07:05:51.456Z,1012.24
2019-04-29T07:07:01.634Z,1012.24
2019-04-29T07:08:11.451Z,1012.26
2019-04-29T07:09:21.410Z,1012.21
2019-04-29T07:10:31.363Z,1012.3
2019-04-29T07:11:41.330Z,1012.32
2019-04-29T07:12:51.374Z,1012.31
2019-04-29T07:14:01.091Z,1012.26
2019-04-29T07:15:12.153Z,1012.27
2019-04-29T07:16:26.291Z,1012.25
2019-04-29T07:17:41.204Z,1012.21
2019-04-29T07:18:53.522Z,1012.25
2019-04-29T07:20:03.649Z,1012.27
2019-04-29T07:21:13.353Z,1012.35
2019-04-29T07:22:25.664Z,1012.3
2019-04-29T07:23:38.786Z,1012.29
2019-04-29T07:24:48.747Z,1012.33
2019-04-29T07:25:58.731Z,1012.3
2019-04-29T07:27:08.195Z,1012.37
2019-04-29T07:28:18.612Z,1012.37
2019-04-29T07:29:31.980Z,1012.3
2019-04-29T07:31:00.212Z,1012.27
2019-04-29T07:32:12.813Z,1012.26
2019-04-29T07:33:24.463Z,1012.27
2019-04-29T07:34:37.720Z,1012.26
2019-04-29T07:35:49.610Z,1012.24
2019-04-29T07:37:13.215Z,1012.2
2019-04-29T07:38:24.475Z,1012.18
2019-04-29T07:39:59.265Z,1012.22
2019-04-29T07:41:18.882Z,1012.21
2019-04-29T07:42:32.057Z,1012.19
2019-04-29T07:43:42.983Z,1012.17
2019-04-29T07:44:54.129Z,1012.12
2019-04-29T07:46:05.502Z,1012.08
2019-04-29T07:47:17.050Z,1012.13
2019-04-29T07:48:36.720Z,1012.15
2019-04-29T07:50:06.239Z,1012.11
2019-04-29T07:51:16.616Z,1012.09
2019-04-29T07:52:26.580Z,1012.13
2019-04-29T07:53:44.683Z,1012.15
2019-04-29T07:54:56.144Z,1012.12
2019-04-29T07:56:06.654Z,1012.05
2019-04-29T07:57:18.049Z,1012.05
2019-04-29T07:58:28.441Z,1011.99
2019-04-29T07:59:39.666Z,1012.05
2019-04-29T08:00:50.005Z,1012.08
2019-04-29T08:02:01.669Z,1012.03
2019-04-29T08:03:11.122Z,1012.05
2019-04-29T08:04:20.837Z,1012.08
2019-04-29T08:05:30.837Z,1012.01
2019-04-29T08:06:42.692Z,1012.05
2019-04-29T08:07:52.669Z,1012.03
2019-04-29T08:09:06.995Z,1012.06
2019-04-29T08:10:23.494Z,1012.13
2019-04-29T08:11:36.219Z,1012.04
2019-04-29T08:12:46.154Z,1011.95
2019-04-29T08:13:55.870Z,1011.92
2019-04-29T08:15:07.667Z,1011.88
2019-04-29T08:16:18.612Z,1011.86
2019-04-29T08:17:28.648Z,1011.87
2019-04-29T08:18:38.624Z,1011.88
2019-04-29T08:19:50.142Z,1011.91
2019-04-29T08:21:05.860Z,1011.9
2019-04-29T08:22:22.755Z,1011.91
2019-04-29T08:23:41.006Z,1011.94
2019-04-29T08:24:52.146Z,1011.92
2019-04-29T08:26:04.095Z,1011.89
2019-04-29T08:27:14.073Z,1011.89
2019-04-29T08:28:24.048Z,1011.88
2019-04-29T08:29:35.569Z,1011.86
2019-04-29T08:30:47.274Z,1011.88
2019-04-29T08:32:00.070Z,1011.84
2019-04-29T08:33:13.199Z,1011.9
2019-04-29T08:34:24.283Z,1011.83
2019-04-29T08:35:36.735Z,1011.89
2019-04-29T08:36:49.766Z,1011.91
2019-04-29T08:37:59.475Z,1011.94
2019-04-29T08:39:09.491Z,1011.97
2019-04-29T08:40:19.176Z,1011.95
2019-04-29T08:41:29.950Z,1011.94
2019-04-29T08:42:41.359Z,1011.95
2019-04-29T08:43:56.486Z,1011.96
2019-04-29T08:45:23.502Z,1011.9
2019-04-29T08:46:39.412Z,1011.93
2019-04-29T08:47:56.740Z,1011.87
2019-04-29T08:49:07.757Z,1011.93
2019-04-29T08:50:22.109Z,1011.88
2019-04-29T08:51:32.095Z,1011.77
2019-04-29T08:52:42.040Z,1011.87
2019-04-29T08:53:51.556Z,1011.84
2019-04-29T08:55:01.515Z,1011.82
2019-04-29T08:56:12.086Z,1011.83
2019-04-29T08:57:21.902Z,1011.79
2019-04-29T08:58:39.291Z,1011.82
2019-04-29T08:59:54.604Z,1011.78
2019-04-29T09:01:04.338Z,1011.8
2019-04-29T09:02:14.072Z,1011.76
2019-04-29T09:03:46.652Z,1011.81
2019-04-29T09:05:00.953Z,1011.83
2019-04-29T09:06:16.974Z,1011.84
2019-04-29T09:07:34.178Z,1011.84
2019-04-29T09:08:54.344Z,1011.86
2019-04-29T09:10:32.917Z,1011.85
2019-04-29T09:11:47.859Z,1011.86
2019-04-29T09:12:59.318Z,1011.82
2019-04-29T09:14:09.040Z,1011.82
2019-04-29T09:15:20.738Z,1011.83
2019-04-29T09:16:30.696Z,1011.79
2019-04-29T09:17:40.652Z,1011.86
2019-04-29T09:18:50.630Z,1011.86
2019-04-29T09:20:00.668Z,1011.77
2019-04-29T09:21:10.386Z,1011.81
2019-04-29T09:22:20.368Z,1011.8
2019-04-29T09:23:30.393Z,1011.8
2019-04-29T09:24:43.441Z,1011.86
2019-04-29T09:26:02.675Z,1011.7
2019-04-29T09:27:13.082Z,1011.78
2019-04-29T09:28:27.882Z,1011.72
2019-04-29T09:29:38.257Z,1011.73
2019-04-29T09:30:58.589Z,1011.76
2019-04-29T09:32:08.554Z,1011.73
2019-04-29T09:33:18.007Z,1011.76
2019-04-29T09:34:27.717Z,1011.71
2019-04-29T09:35:38.611Z,1011.71
2019-04-29T09:36:49.799Z,1011.67
2019-04-29T09:37:59.846Z,1011.69
2019-04-29T09:39:09.585Z,1011.73
2019-04-29T09:40:21.780Z,1011.74
2019-04-29T09:41:34.962Z,1011.71
2019-04-29T09:42:45.385Z,1011.73
2019-04-29T09:44:15.292Z,1011.75
2019-04-29T09:45:25.283Z,1011.75
2019-04-29T09:46:35.755Z,1011.74
2019-04-29T09:47:45.806Z,1011.7
2019-04-29T09:48:55.541Z,1011.73
2019-04-29T09:50:05.512Z,1011.72
2019-04-29T09:51:17.465Z,1011.75
2019-04-29T09:52:35.074Z,1011.77
2019-04-29T09:53:45.077Z,1011.71
2019-04-29T09:54:54.542Z,1011.7
2019-04-29T09:56:09.368Z,1011.78
2019-04-29T09:57:19.092Z,1011.74
2019-04-29T09:58:28.829Z,1011.74
2019-04-29T09:59:38.812Z,1011.69
2019-04-29T10:00:48.812Z,1011.71
2019-04-29T10:02:01.332Z,1011.69
2019-04-29T10:03:11.994Z,1011.69
2019-04-29T10:04:21.961Z,1011.74
2019-04-29T10:05:31.710Z,1011.72
2019-04-29T10:06:41.683Z,1011.71
2019-04-29T10:07:51.402Z,1011.75
2019-04-29T10:09:01.388Z,1011.72
2019-04-29T10:10:10.845Z,1011.74
2019-04-29T10:11:20.828Z,1011.78
2019-04-29T10:12:30.570Z,1011.75
2019-04-29T10:13:40.516Z,1011.78
2019-04-29T10:14:50.251Z,1011.8
2019-04-29T10:16:01.807Z,1011.79
2019-04-29T10:17:15.307Z,1011.78
2019-04-29T10:18:29.716Z,1011.77
2019-04-29T10:19:40.141Z,1011.81
2019-04-29T10:20:50.117Z,1011.75
2019-04-29T10:22:00.062Z,1011.78
2019-04-29T10:23:10.016Z,1011.73
2019-04-29T10:24:19.725Z,1011.72
2019-04-29T10:25:29.687Z,1011.79
2019-04-29T10:26:39.400Z,1011.75
2019-04-29T10:27:49.142Z,1011.76
2019-04-29T10:28:59.081Z,1011.78
2019-04-29T10:30:08.794Z,1011.78
2019-04-29T10:31:18.744Z,1011.71
2019-04-29T10:32:28.710Z,1011.71
2019-04-29T10:33:42.696Z,1011.66
2019-04-29T10:34:58.026Z,1011.7
2019-04-29T10:36:15.939Z,1011.75
2019-04-29T10:37:32.661Z,1011.7
2019-04-29T10:38:44.869Z,1011.63
2019-04-29T10:39:55.035Z,1011.68
2019-04-29T10:41:17.860Z,1011.7
2019-04-29T10:42:27.567Z,1011.68
2019-04-29T10:43:37.582Z,1011.65
2019-04-29T10:44:49.973Z,1011.73
2019-04-29T10:45:59.935Z,1011.71
2019-04-29T10:47:09.909Z,1011.7
2019-04-29T10:48:19.626Z,1011.74
2019-04-29T10:49:29.581Z,1011.62
2019-04-29T10:50:47.018Z,1011.67
2019-04-29T10:52:02.754Z,1011.65
2019-04-29T10:53:15.384Z,1011.67
2019-04-29T10:54:25.404Z,1011.66
2019-04-29T10:55:35.396Z,1011.67
2019-04-29T10:56:45.134Z,1011.61
2019-04-29T10:57:55.113Z,1011.63
2019-04-29T10:59:09.076Z,1011.65
2019-04-29T11:00:21.715Z,1011.64
2019-04-29T11:01:32.037Z,1011.68
2019-04-29T11:02:44.637Z,1011.6
2019-04-29T11:04:00.676Z,1011.62
2019-04-29T11:05:13.601Z,1011.64
2019-04-29T11:06:23.611Z,1011.72
2019-04-29T11:07:38.733Z,1011.72
2019-04-29T11:08:48.709Z,1011.71
2019-04-29T11:09:58.692Z,1011.74
2019-04-29T11:11:27.123Z,1011.75
2019-04-29T11:12:37.506Z,1011.73
2019-04-29T11:13:50.436Z,1011.75
2019-04-29T11:15:04.547Z,1011.78
2019-04-29T11:16:22.780Z,1011.76
2019-04-29T11:17:58.679Z,1011.74
2019-04-29T11:19:10.975Z,1011.75
2019-04-29T11:20:21.550Z,1011.71
2019-04-29T11:21:31.415Z,1011.77
2019-04-29T11:22:44.619Z,1011.78
2019-04-29T11:23:56.357Z,1011.75
2019-04-29T11:25:06.422Z,1011.76
2019-04-29T11:26:16.370Z,1011.77
2019-04-29T11:27:26.071Z,1011.79
2019-04-29T11:28:36.068Z,1011.79
2019-04-29T11:29:51.844Z,1011.79
2019-04-29T11:31:09.654Z,1011.75
2019-04-29T11:32:24.764Z,1011.77
2019-04-29T11:33:39.961Z,1011.75
2019-04-29T11:34:53.138Z,1011.71
2019-04-29T11:36:05.676Z,1011.72
2019-04-29T11:37:17.747Z,1011.7
2019-04-29T11:38:32.866Z,1011.64
2019-04-29T11:39:49.902Z,1011.68
2019-04-29T11:41:02.424Z,1011.71
2019-04-29T11:42:20.353Z,1011.66
2019-04-29T11:43:32.207Z,1011.65
2019-04-29T11:44:42.163Z,1011.67
2019-04-29T11:45:52.139Z,1011.7
2019-04-29T11:47:01.839Z,1011.7
2019-04-29T11:48:11.811Z,1011.63
2019-04-29T11:49:21.519Z,1011.66
2019-04-29T11:50:31.493Z,1011.64
2019-04-29T11:51:57.764Z,1011.61
2019-04-29T11:53:18.062Z,1011.65
2019-04-29T11:54:27.505Z,1011.68
2019-04-29T11:55:37.225Z,1011.63
2019-04-29T11:56:57.622Z,1011.64
2019-04-29T11:58:07.073Z,1011.63
2019-04-29T11:59:16.652Z,1011.63
2019-04-29T12:00:27.263Z,1011.65
2019-04-29T12:01:38.685Z,1011.58
2019-04-29T12:03:00.341Z,1011.61
2019-04-29T12:04:10.317Z,1011.61
2019-04-29T12:05:20.306Z,1011.59
2019-04-29T12:06:30.319Z,1011.58
2019-04-29T12:07:40.131Z,1011.59
2019-04-29T12:08:53.058Z,1011.57
2019-04-29T12:10:08.512Z,1011.58
2019-04-29T12:11:18.229Z,1011.57
2019-04-29T12:12:36.481Z,1011.6
2019-04-29T12:13:50.983Z,1011.62
2019-04-29T12:15:08.979Z,1011.56
2019-04-29T12:16:24.402Z,1011.57
2019-04-29T12:17:34.747Z,1011.56
2019-04-29T12:18:44.730Z,1011.58
2019-04-29T12:19:54.243Z,1011.53
2019-04-29T12:21:03.976Z,1011.58
2019-04-29T12:22:26.186Z,1011.55
2019-04-29T12:23:53.240Z,1011.54
2019-04-29T12:25:03.255Z,1011.56
2019-04-29T12:26:13.054Z,1011.54
2019-04-29T12:27:22.864Z,1011.52
2019-04-29T12:28:37.791Z,1011.54
2019-04-29T12:29:53.878Z,1011.51
2019-04-29T12:31:10.246Z,1011.56
2019-04-29T12:32:20.516Z,1011.46
2019-04-29T12:33:36.885Z,1011.55
2019-04-29T12:34:47.225Z,1011.46
2019-04-29T12:35:58.529Z,1011.46
2019-04-29T12:37:11.063Z,1011.48
2019-04-29T12:38:20.527Z,1011.49
2019-04-29T12:39:52.151Z,1011.45
2019-04-29T12:41:04.698Z,1011.49
2019-04-29T12:42:48.649Z,1011.46
2019-04-29T12:44:00.135Z,1011.46
2019-04-29T12:45:19.154Z,1011.48
2019-04-29T12:46:29.559Z,1011.37
2019-04-29T12:47:39.635Z,1011.4
2019-04-29T12:48:49.499Z,1011.39
2019-04-29T12:49:59.541Z,1011.39
2019-04-29T12:51:09.027Z,1011.4
2019-04-29T12:52:22.241Z,1011.4
2019-04-29T12:53:32.204Z,1011.41
2019-04-29T12:54:45.973Z,1011.37
2019-04-29T12:55:56.222Z,1011.4
2019-04-29T12:57:11.749Z,1011.32
2019-04-29T12:58:26.675Z,1011.31
2019-04-29T12:59:37.246Z,1011.32
2019-04-29T13:00:52.995Z,1011.31
2019-04-29T13:02:13.855Z,1011.36
2019-04-29T13:03:30.382Z,1011.34
2019-04-29T13:04:49.734Z,1011.38
2019-04-29T13:06:02.484Z,1011.33
2019-04-29T13:07:14.921Z,1011.3
2019-04-29T13:08:24.878Z,1011.28
2019-04-29T13:09:34.929Z,1011.28
2019-04-29T13:10:45.023Z,1011.3
2019-04-29T13:12:05.045Z,1011.31
2019-04-29T13:13:27.289Z,1011.27
2019-04-29T13:14:39.053Z,1011.27
2019-04-29T13:16:02.665Z,1011.23
2019-04-29T13:17:14.547Z,1011.22
2019-04-29T13:18:27.153Z,1011.19
2019-04-29T13:19:37.103Z,1011.17
2019-04-29T13:21:09.789Z,1011.26
2019-04-29T13:22:20.232Z,1011.21
2019-04-29T13:23:36.114Z,1011.2
2019-04-29T13:25:27.671Z,1011.17
2019-04-29T13:26:42.149Z,1011.24
2019-04-29T13:27:55.515Z,1011.2
2019-04-29T13:29:25.804Z,1011.17
2019-04-29T13:32:45.034Z,1011.16
2019-04-29T13:33:54.504Z,1011.16
2019-04-29T13:35:47.653Z,1011.16
2019-04-29T13:37:06.900Z,1011.2
2019-04-29T13:38:26.274Z,1011.16
2019-04-29T13:39:39.567Z,1011.11
2019-04-29T13:40:49.931Z,1011.07
2019-04-29T13:42:28.876Z,1011.09
2019-04-29T13:43:38.898Z,1011.06
2019-04-29T13:45:04.890Z,1011.05
2019-04-29T13:46:28.181Z,1011.06
2019-04-29T13:47:37.187Z,1011.01
2019-04-29T13:48:55.535Z,1011.02
2019-04-29T13:50:34.214Z,1011.02
2019-04-29T13:51:48.334Z,1010.94
2019-04-29T13:52:58.326Z,1010.95
2019-04-29T13:54:12.226Z,1010.89
2019-04-29T13:55:46.447Z,1010.9
2019-04-29T13:57:55.043Z,1010.89
2019-04-29T13:59:09.575Z,1010.89
2019-04-29T14:00:24.451Z,1010.9
2019-04-29T14:01:37.911Z,1010.9
2019-04-29T14:03:12.906Z,1010.85
2019-04-29T14:04:24.775Z,1010.84
2019-04-29T14:05:36.616Z,1010.91
2019-04-29T14:06:56.477Z,1010.92
2019-04-29T14:08:07.028Z,1010.89
2019-04-29T14:09:17.000Z,1010.87
2019-04-29T14:10:26.960Z,1010.89
2019-04-29T14:11:36.946Z,1010.83
2019-04-29T14:13:09.964Z,1010.85
2019-04-29T14:14:28.304Z,1010.87
2019-04-29T14:17:38.192Z,1010.85
2019-04-29T14:18:49.788Z,1010.84
2019-04-29T14:19:59.824Z,1010.89
2019-04-29T14:21:18.041Z,1010.8
2019-04-29T14:22:34.880Z,1010.83
2019-04-29T14:23:44.844Z,1010.86
2019-04-29T14:24:54.814Z,1010.82
2019-04-29T14:26:04.512Z,1010.88
2019-04-29T14:27:24.374Z,1010.78
2019-04-29T14:28:35.021Z,1010.85
2019-04-29T14:29:44.488Z,1010.84
2019-04-29T14:30:56.711Z,1010.85
2019-04-29T14:32:06.676Z,1010.84
2019-04-29T14:33:35.081Z,1010.94
2019-04-29T14:34:44.799Z,1010.95
2019-04-29T14:35:54.497Z,1010.9
2019-04-29T14:37:25.111Z,1010.9
2019-04-29T14:38:35.797Z,1010.92
2019-04-29T14:39:48.539Z,1010.84